createdAt,value
2023-05-08T00:00:16.776Z,19.60
2023-05-08T00:03:02.466Z,19.60
2023-05-08T00:05:48.015Z,19.60
2023-05-08T00:08:33.855Z,19.60
2023-05-08T00:11:19.629Z,19.60
2023-05-08T00:14:05.274Z,19.60
2023-05-08T00:16:51.317Z,19.60
2023-05-08T00:19:37.000Z,19.60
2023-05-08T00:22:22.755Z,19.60
2023-05-08T00:25:09.176Z,19.60
2023-05-08T00:27:54.366Z,19.60
2023-05-08T00:30:40.358Z,19.60
2023-05-08T00:33:26.565Z,19.60
2023-05-08T00:36:12.554Z,19.60
2023-05-08T00:38:58.396Z,19.50
2023-05-08T00:41:44.055Z,19.40
2023-05-08T00:44:29.479Z,19.40
2023-05-08T00:47:15.508Z,19.50
2023-05-08T00:50:01.210Z,19.50
2023-05-08T00:52:46.931Z,19.50
2023-05-08T00:55:32.910Z,19.40
2023-05-08T00:58:26.021Z,19.30
2023-05-08T01:01:11.650Z,19.30
2023-05-08T01:03:57.532Z,19.30
2023-05-08T01:06:42.960Z,19.20
2023-05-08T01:09:28.390Z,19.20
2023-05-08T01:12:14.284Z,19.20
2023-05-08T01:15:11.701Z,19.00
2023-05-08T01:18:04.979Z,19.00
2023-05-08T01:20:53.432Z,18.90
2023-05-08T01:23:58.214Z,18.90
2023-05-08T01:26:50.113Z,18.90
2023-05-08T01:29:38.451Z,18.80
2023-05-08T01:32:26.467Z,18.70
2023-05-08T01:35:24.119Z,18.70
2023-05-08T01:38:32.947Z,18.70
2023-05-08T01:41:26.283Z,18.70
2023-05-08T01:44:14.843Z,18.60
2023-05-08T01:47:04.144Z,18.60
2023-05-08T01:49:54.525Z,18.60
2023-05-08T01:52:51.397Z,18.60
2023-05-08T01:55:37.945Z,18.50
2023-05-08T01:58:24.381Z,18.50
2023-05-08T02:01:11.914Z,18.50
2023-05-08T02:03:57.975Z,18.40
2023-05-08T02:06:43.899Z,18.40
2023-05-08T02:09:31.519Z,18.40
2023-05-08T02:12:17.846Z,18.30
2023-05-08T02:15:04.091Z,18.30
2023-05-08T02:17:50.787Z,18.20
2023-05-08T02:20:37.676Z,18.10
2023-05-08T02:23:25.461Z,18.10
2023-05-08T02:26:12.320Z,18.00
2023-05-08T02:28:58.609Z,18.00
2023-05-08T02:31:45.452Z,18.00
2023-05-08T02:34:31.772Z,17.90
2023-05-08T02:37:18.551Z,17.90
2023-05-08T02:40:04.339Z,17.80
2023-05-08T02:42:50.503Z,17.80
2023-05-08T02:45:43.510Z,17.70
2023-05-08T02:48:33.358Z,17.70
2023-05-08T02:51:25.734Z,17.60
2023-05-08T02:54:18.045Z,17.60
2023-05-08T02:57:08.808Z,17.60
2023-05-08T02:59:59.720Z,17.50
2023-05-08T03:02:52.973Z,17.40
2023-05-08T03:05:39.564Z,17.40
2023-05-08T03:08:30.804Z,17.40
2023-05-08T03:11:19.565Z,17.40
2023-05-08T03:14:06.527Z,17.40
2023-05-08T03:16:53.793Z,17.40
2023-05-08T03:19:41.367Z,17.30
2023-05-08T03:22:28.657Z,17.30
2023-05-08T03:25:16.751Z,17.30
2023-05-08T03:28:04.785Z,17.40
2023-05-08T03:30:51.027Z,17.40
2023-05-08T03:33:38.830Z,17.30
2023-05-08T03:36:26.888Z,17.30
2023-05-08T03:39:12.801Z,17.30
2023-05-08T03:41:59.155Z,17.20
2023-05-08T03:44:44.525Z,17.20
2023-05-08T03:47:31.206Z,17.20
2023-05-08T03:50:17.175Z,17.20
2023-05-08T03:53:03.472Z,17.20
2023-05-08T03:55:49.538Z,17.30
2023-05-08T03:58:34.882Z,17.30
2023-05-08T04:01:50.365Z,17.20
2023-05-08T04:04:44.461Z,17.20
2023-05-08T04:07:37.755Z,17.20
2023-05-08T04:10:27.351Z,17.10
2023-05-08T04:13:14.203Z,17.20
2023-05-08T04:16:13.598Z,17.20
2023-05-08T04:19:03.432Z,17.20
2023-05-08T04:21:51.433Z,17.40
2023-05-08T04:24:40.755Z,17.40
2023-05-08T04:27:27.221Z,17.40
2023-05-08T04:30:13.019Z,17.40
2023-05-08T04:32:59.679Z,17.50
2023-05-08T04:35:46.364Z,17.50
2023-05-08T04:38:36.082Z,17.50
2023-05-08T04:41:21.837Z,17.50
2023-05-08T04:44:08.370Z,17.60
2023-05-08T04:46:53.851Z,17.60
2023-05-08T04:49:39.767Z,17.60
2023-05-08T04:52:25.356Z,17.60
2023-05-08T04:55:11.448Z,17.60
2023-05-08T04:57:58.238Z,17.60
2023-05-08T05:00:44.540Z,17.40
2023-05-08T05:03:30.539Z,17.30
2023-05-08T05:06:16.519Z,17.30
2023-05-08T05:09:05.284Z,17.20
2023-05-08T05:11:51.716Z,17.30
2023-05-08T05:14:37.975Z,17.40
2023-05-08T05:17:23.377Z,17.50
2023-05-08T05:20:09.291Z,17.50
2023-05-08T05:22:55.731Z,17.50
2023-05-08T05:25:41.665Z,17.50
2023-05-08T05:28:27.665Z,17.50
2023-05-08T05:31:13.212Z,17.60
2023-05-08T05:33:59.113Z,18.00
2023-05-08T05:36:44.802Z,18.40
2023-05-08T05:39:30.400Z,18.60
2023-05-08T05:42:16.427Z,18.90
2023-05-08T05:45:02.439Z,19.00
2023-05-08T05:47:50.615Z,19.20
2023-05-08T05:59:26.486Z,19.60
2023-05-08T06:02:18.688Z,19.70
2023-05-08T06:05:05.075Z,19.50
2023-05-08T06:07:50.831Z,19.40
2023-05-08T06:10:36.579Z,19.50
2023-05-08T06:13:22.231Z,19.60
2023-05-08T06:16:08.385Z,19.40
2023-05-08T06:18:53.934Z,19.40
2023-05-08T06:21:39.932Z,19.10
2023-05-08T06:24:25.751Z,19.20
2023-05-08T06:27:11.761Z,19.10
2023-05-08T06:29:57.595Z,19.10
2023-05-08T06:32:43.476Z,19.20
2023-05-08T06:35:29.032Z,19.50
2023-05-08T06:38:15.965Z,19.70
2023-05-08T06:41:01.243Z,19.60
2023-05-08T06:43:46.988Z,19.80
2023-05-08T06:46:32.540Z,20.00
2023-05-08T06:49:18.317Z,20.30
2023-05-08T06:52:04.059Z,20.10
2023-05-08T06:54:49.445Z,20.40
2023-05-08T06:57:35.384Z,21.40
2023-05-08T07:00:20.946Z,21.10
2023-05-08T07:03:06.652Z,21.20
2023-05-08T07:05:52.456Z,21.40
2023-05-08T07:08:38.118Z,21.30
2023-05-08T07:11:24.009Z,21.10
2023-05-08T07:14:16.546Z,21.40
2023-05-08T07:17:07.087Z,21.40
2023-05-08T07:19:52.618Z,22.10
2023-05-08T07:22:38.468Z,22.60
2023-05-08T07:30:05.074Z,23.20
2023-05-08T07:32:50.760Z,22.80
2023-05-08T07:35:38.086Z,22.60
2023-05-08T07:38:23.967Z,23.00
2023-05-08T07:41:10.020Z,23.10
2023-05-08T07:43:55.843Z,23.00
2023-05-08T07:46:41.735Z,23.20
2023-05-08T07:49:27.297Z,23.10
2023-05-08T07:57:05.746Z,22.40
2023-05-08T07:59:51.400Z,21.80
2023-05-08T08:02:38.252Z,21.40
2023-05-08T08:05:23.851Z,21.30
2023-05-08T08:08:09.186Z,21.40
2023-05-08T08:10:55.001Z,21.50
2023-05-08T08:13:40.701Z,21.40
2023-05-08T08:16:27.076Z,21.30
2023-05-08T08:19:12.441Z,21.10
2023-05-08T08:21:58.430Z,21.00
2023-05-08T08:29:24.328Z,20.90
2023-05-08T08:36:50.056Z,20.80
2023-05-08T08:39:35.968Z,20.70
2023-05-08T09:27:38.351Z,21.10
2023-05-08T09:30:48.417Z,21.20
2023-05-08T09:33:43.638Z,21.00
2023-05-08T09:36:32.328Z,21.10
2023-05-08T09:39:22.000Z,21.10
2023-05-08T09:42:07.589Z,21.10
2023-05-08T09:44:53.970Z,21.00
2023-05-08T09:47:47.914Z,21.00
2023-05-08T09:50:33.769Z,20.90
2023-05-08T09:53:19.459Z,20.90
2023-05-08T09:56:05.393Z,20.90
2023-05-08T09:58:51.474Z,20.90
2023-05-08T10:01:37.233Z,20.70
2023-05-08T10:04:36.130Z,20.70
2023-05-08T10:07:35.846Z,20.80
2023-05-08T10:10:29.078Z,20.80
2023-05-08T10:13:14.904Z,21.00
2023-05-08T10:21:31.519Z,21.10
2023-05-08T10:24:18.795Z,21.70
2023-05-08T10:27:32.013Z,22.20
2023-05-08T10:30:19.756Z,22.30
2023-05-08T10:33:09.443Z,22.20
2023-05-08T10:35:55.289Z,22.10
2023-05-08T10:38:41.876Z,22.20
2023-05-08T10:45:27.502Z,22.60
2023-05-08T10:48:36.692Z,22.50
2023-05-08T10:51:41.457Z,22.00
2023-05-08T10:54:50.974Z,22.10
2023-05-08T10:57:36.881Z,22.00
2023-05-08T11:00:22.767Z,22.20
2023-05-08T11:03:19.975Z,22.20
2023-05-08T11:06:38.800Z,22.20
2023-05-08T11:09:45.900Z,22.20
2023-05-08T11:12:31.713Z,22.10
2023-05-08T11:15:18.073Z,22.00
2023-05-08T11:18:04.505Z,22.20
2023-05-08T11:20:57.810Z,22.30
2023-05-08T11:23:43.492Z,22.30
2023-05-08T11:26:40.165Z,22.50
2023-05-08T11:29:26.099Z,22.80
2023-05-08T11:32:11.935Z,23.10
2023-05-08T11:34:57.475Z,22.80
2023-05-08T11:38:03.328Z,22.70
2023-05-08T11:40:50.492Z,22.60
2023-05-08T11:43:38.945Z,22.40
2023-05-08T11:46:32.578Z,22.30
2023-05-08T11:49:22.296Z,22.10
2023-05-08T11:52:10.986Z,22.10
2023-05-08T11:54:56.701Z,22.30
2023-05-08T11:57:42.267Z,22.30
2023-05-08T12:00:28.069Z,22.60
2023-05-08T12:03:14.690Z,22.80
2023-05-08T12:06:00.767Z,22.90
2023-05-08T12:08:46.420Z,22.90
2023-05-08T12:11:32.206Z,22.90
2023-05-08T12:14:18.056Z,23.00
2023-05-08T12:17:03.921Z,23.10
2023-05-08T12:19:54.165Z,23.00
2023-05-08T12:22:40.796Z,22.80
2023-05-08T12:25:26.661Z,22.70
2023-05-08T12:28:12.160Z,22.70
2023-05-08T12:30:58.075Z,22.80
2023-05-08T12:33:43.918Z,23.00
2023-05-08T12:36:29.517Z,22.90
2023-05-08T12:39:16.431Z,22.90
2023-05-08T12:42:01.973Z,22.70
2023-05-08T12:44:51.347Z,22.80
2023-05-08T12:47:37.489Z,22.70
2023-05-08T12:50:23.771Z,22.60
2023-05-08T12:53:16.740Z,22.70
2023-05-08T12:56:03.605Z,22.80
2023-05-08T12:58:49.401Z,23.10
2023-05-08T13:01:35.229Z,22.80
2023-05-08T13:04:20.890Z,22.70
2023-05-08T13:07:06.647Z,23.00
2023-05-08T13:09:58.477Z,23.00
2023-05-08T13:12:43.877Z,22.70
2023-05-08T13:15:29.566Z,23.00
2023-05-08T13:18:16.176Z,22.90
2023-05-08T13:21:02.950Z,23.20
2023-05-08T13:23:48.888Z,23.20
2023-05-08T13:26:34.434Z,23.30
2023-05-08T13:29:22.171Z,23.40
2023-05-08T13:32:08.134Z,23.20
2023-05-08T13:34:56.444Z,22.80
2023-05-08T13:37:45.237Z,22.80
2023-05-08T13:40:31.348Z,22.90
2023-05-08T13:43:17.332Z,22.70
2023-05-08T13:46:04.760Z,22.50
2023-05-08T13:48:51.736Z,22.80
2023-05-08T13:51:37.745Z,23.00
2023-05-08T13:54:23.441Z,23.00
2023-05-08T13:57:09.234Z,23.00
2023-05-08T13:59:54.779Z,22.90
2023-05-08T14:02:40.615Z,22.70
2023-05-08T14:05:26.282Z,22.70
2023-05-08T14:08:12.053Z,22.60
2023-05-08T14:10:57.561Z,22.40
2023-05-08T14:13:43.734Z,22.40
2023-05-08T14:16:29.308Z,22.50
2023-05-08T14:19:14.907Z,22.80
2023-05-08T14:22:02.199Z,23.10
2023-05-08T14:24:47.920Z,23.20
2023-05-08T14:27:33.961Z,23.40
2023-05-08T14:30:20.360Z,23.50
2023-05-08T14:33:05.886Z,23.60
2023-05-08T14:35:51.526Z,23.50
2023-05-08T14:38:37.196Z,23.60
2023-05-08T14:41:23.075Z,23.50
2023-05-08T14:44:08.597Z,23.40
2023-05-08T14:46:54.291Z,23.50
2023-05-08T14:49:39.825Z,23.50
2023-05-08T14:52:25.666Z,23.20
2023-05-08T14:55:11.433Z,23.20
2023-05-08T14:57:57.854Z,23.00
2023-05-08T15:00:43.554Z,22.90
2023-05-08T15:03:29.545Z,23.00
2023-05-08T15:06:15.646Z,22.90
2023-05-08T15:09:01.082Z,23.00
2023-05-08T15:11:46.850Z,22.90
2023-05-08T15:14:32.614Z,22.90
2023-05-08T15:17:18.406Z,22.80
2023-05-08T15:20:04.595Z,22.80
2023-05-08T15:22:50.509Z,22.80
2023-05-08T15:25:36.180Z,22.60
2023-05-08T15:28:21.778Z,22.40
2023-05-08T15:31:07.591Z,22.50
2023-05-08T15:33:53.106Z,22.60
2023-05-08T15:36:38.859Z,22.70
2023-05-08T15:39:24.680Z,22.80
2023-05-08T15:42:10.385Z,22.90
2023-05-08T15:44:57.458Z,22.80
2023-05-08T15:47:42.772Z,22.80
2023-05-08T15:50:28.713Z,22.80
2023-05-08T15:53:14.322Z,22.80
2023-05-08T15:56:00.015Z,22.60
2023-05-08T15:58:45.761Z,22.50
2023-05-08T16:01:31.719Z,22.40
2023-05-08T16:04:17.480Z,22.20
2023-05-08T16:07:03.343Z,22.10
2023-05-08T16:09:49.194Z,22.20
2023-05-08T16:12:34.818Z,22.10
2023-05-08T16:15:20.557Z,22.20
2023-05-08T16:18:06.438Z,22.10
2023-05-08T16:20:51.939Z,22.10
2023-05-08T16:23:37.723Z,22.10
2023-05-08T16:26:23.558Z,22.00
2023-05-08T16:29:09.177Z,22.00
2023-05-08T16:31:54.860Z,21.90
2023-05-08T16:34:40.429Z,21.80
2023-05-08T16:37:26.242Z,21.80
2023-05-08T16:40:12.052Z,21.80
2023-05-08T16:42:57.649Z,21.80
2023-05-08T16:45:43.369Z,21.70
2023-05-08T16:48:30.368Z,21.70
2023-05-08T16:51:16.013Z,21.80
2023-05-08T16:54:02.375Z,21.90
2023-05-08T16:56:47.996Z,21.90
2023-05-08T16:59:33.835Z,21.80
2023-05-08T17:02:19.670Z,21.80
2023-05-08T17:05:05.470Z,21.90
2023-05-08T17:07:51.204Z,21.90
2023-05-08T17:10:36.898Z,21.90
2023-05-08T17:13:22.586Z,22.00
2023-05-08T17:16:08.130Z,22.00
2023-05-08T17:18:53.887Z,21.90
2023-05-08T17:21:39.637Z,21.80
2023-05-08T17:24:25.681Z,21.80
2023-05-08T17:27:11.295Z,21.70
2023-05-08T17:29:56.951Z,21.60
2023-05-08T17:32:43.235Z,21.60
2023-05-08T17:35:28.953Z,21.40
2023-05-08T17:38:14.630Z,21.40
2023-05-08T17:41:00.442Z,21.30
2023-05-08T17:43:46.193Z,21.30
2023-05-08T17:46:31.923Z,21.20
2023-05-08T17:49:46.041Z,21.30
2023-05-08T17:52:34.409Z,21.20
2023-05-08T17:55:20.332Z,21.10
2023-05-08T17:58:06.107Z,21.10
2023-05-08T18:00:52.152Z,21.00
2023-05-08T18:03:37.855Z,21.10
2023-05-08T18:06:23.527Z,21.10
2023-05-08T18:09:11.944Z,21.00
2023-05-08T18:12:02.380Z,20.90
2023-05-08T18:14:48.651Z,20.80
2023-05-08T18:17:34.231Z,20.80
2023-05-08T18:20:23.552Z,20.70
2023-05-08T18:23:09.286Z,20.60
2023-05-08T18:25:55.006Z,20.70
2023-05-08T18:28:40.791Z,20.50
2023-05-08T18:31:26.304Z,20.50
2023-05-08T18:34:12.304Z,20.60
2023-05-08T18:36:58.213Z,20.50
2023-05-08T18:39:43.892Z,20.50
2023-05-08T18:42:29.717Z,20.40
2023-05-08T18:45:15.886Z,20.40
2023-05-08T18:48:01.689Z,20.40
2023-05-08T18:50:47.579Z,20.30
2023-05-08T18:53:33.320Z,20.30
2023-05-08T18:56:19.647Z,20.30
2023-05-08T18:59:05.258Z,20.20
2023-05-08T19:01:51.176Z,20.20
2023-05-08T19:04:37.154Z,20.20
2023-05-08T19:07:22.714Z,20.20
2023-05-08T19:10:08.731Z,20.20
2023-05-08T19:12:54.631Z,20.10
2023-05-08T19:15:40.570Z,20.00
2023-05-08T19:18:26.049Z,20.00
2023-05-08T19:21:11.665Z,19.90
2023-05-08T19:23:57.331Z,20.00
2023-05-08T19:26:43.044Z,20.00
2023-05-08T19:29:28.657Z,20.00
2023-05-08T19:32:17.208Z,20.00
2023-05-08T19:35:03.099Z,20.00
2023-05-08T19:37:48.453Z,19.90
2023-05-08T19:40:44.526Z,19.90
2023-05-08T19:43:38.193Z,19.90
2023-05-08T19:46:23.982Z,20.00
2023-05-08T19:49:10.154Z,20.00
2023-05-08T19:51:55.882Z,20.00
2023-05-08T19:54:42.849Z,19.90
2023-05-08T19:57:28.292Z,19.90
2023-05-08T20:00:14.241Z,19.90
2023-05-08T20:03:00.215Z,20.00
2023-05-08T20:05:50.048Z,20.00
2023-05-08T20:08:35.803Z,20.00
2023-05-08T20:11:22.009Z,20.00
2023-05-08T20:14:07.575Z,20.00
2023-05-08T20:16:53.321Z,20.00
2023-05-08T20:19:39.229Z,19.90
2023-05-08T20:22:24.760Z,19.90
2023-05-08T20:25:10.474Z,19.90
2023-05-08T20:27:56.074Z,19.90
2023-05-08T20:30:41.850Z,19.90
2023-05-08T20:33:27.869Z,19.80
2023-05-08T20:36:13.433Z,19.80
2023-05-08T20:38:59.105Z,19.70
2023-05-08T20:41:44.690Z,19.60
2023-05-08T20:44:30.275Z,19.60
2023-05-08T20:47:17.146Z,19.50
2023-05-08T20:50:03.948Z,19.50
2023-05-08T20:52:49.961Z,19.50
2023-05-08T20:55:35.475Z,19.50
2023-05-08T20:58:21.055Z,19.60
2023-05-08T21:01:06.790Z,19.50
2023-05-08T21:03:52.507Z,19.60
2023-05-08T21:06:38.265Z,19.60
2023-05-08T21:09:24.148Z,19.60
2023-05-08T21:12:10.623Z,19.60
2023-05-08T21:14:56.113Z,19.60
2023-05-08T21:17:42.113Z,19.60
2023-05-08T21:20:27.931Z,19.50
2023-05-08T21:23:13.639Z,19.40
2023-05-08T21:25:59.550Z,19.40
2023-05-08T21:28:44.901Z,19.50
2023-05-08T21:31:35.632Z,19.50
2023-05-08T21:34:21.512Z,19.50
2023-05-08T21:37:07.152Z,19.50
2023-05-08T21:39:54.293Z,19.50
2023-05-08T21:42:40.008Z,19.50
2023-05-08T21:45:25.310Z,19.50
2023-05-08T21:48:11.053Z,19.50
2023-05-08T21:50:56.786Z,19.50
2023-05-08T21:53:42.475Z,19.50
2023-05-08T21:56:28.233Z,19.40
2023-05-08T21:59:14.408Z,19.40
2023-05-08T22:01:59.922Z,19.40
2023-05-08T22:04:45.466Z,19.40
2023-05-08T22:07:31.170Z,19.40
2023-05-08T22:10:17.211Z,19.30
2023-05-08T22:13:03.087Z,19.40
2023-05-08T22:15:49.015Z,19.30
2023-05-08T22:18:34.878Z,19.20
2023-05-08T22:21:20.576Z,19.20
2023-05-08T22:24:06.710Z,19.10
2023-05-08T22:26:52.230Z,19.10
2023-05-08T22:29:38.038Z,19.00
2023-05-08T22:32:24.448Z,18.90
2023-05-08T22:35:10.230Z,19.00
2023-05-08T22:37:57.355Z,19.00
2023-05-08T22:40:43.361Z,18.90
2023-05-08T22:43:28.928Z,19.00
2023-05-08T22:46:14.606Z,18.90
2023-05-08T22:49:00.630Z,18.90
2023-05-08T22:51:46.304Z,18.90
2023-05-08T22:54:32.228Z,18.90
2023-05-08T22:57:17.754Z,18.80
2023-05-08T23:00:03.504Z,18.80
2023-05-08T23:02:48.987Z,18.80
2023-05-08T23:05:34.687Z,18.80
2023-05-08T23:08:22.049Z,18.80
2023-05-08T23:11:07.687Z,18.70
2023-05-08T23:13:53.498Z,18.60
2023-05-08T23:16:39.210Z,18.60
2023-05-08T23:19:24.753Z,18.60
2023-05-08T23:22:10.309Z,18.60
2023-05-08T23:24:56.125Z,18.60
2023-05-08T23:27:41.794Z,18.60
2023-05-08T23:30:27.384Z,18.60
2023-05-08T23:33:12.959Z,18.50
2023-05-08T23:35:59.163Z,18.50
2023-05-08T23:38:44.767Z,18.50
2023-05-08T23:41:30.592Z,18.40
2023-05-08T23:44:16.541Z,18.40
2023-05-08T23:47:02.035Z,18.40
2023-05-08T23:49:47.584Z,18.30
2023-05-08T23:52:33.310Z,18.30
2023-05-08T23:55:19.182Z,18.30
2023-05-08T23:58:04.920Z,18.30
